Latest Weather Observations for Lameroo AWS

IDS60801

Issued at 8:41 am CDT Tuesday 6 December 2022 (issued every 10 minutes, with the page automatically refreshed every 10 minutes)

About weather observations | Map of weather stations | Latest weather observations for SA | Other Formats
Station Details ID: 025562 Name: AUSTIN PLAINS Lat: -35.38 Lon: 140.54 Height: 110.08 m
Data from the previous 72 hours. | See also: Recent months at Lameroo AWS
Date/Time
CDT
Temp
°C
App
Temp
°C
Dew
Point
°C
Rel
Hum
%
Delta-T
°C
Wind Press
QNH
hPa
Press
MSL
hPa
Rain since
9am
mm
Dir  Spd
km/h
Gust
km/h
Spd
kts
Gust
kts
06/08:30am 13.3 8.5 4.7 56 4.0 ESE 19 26 10 14 1013.3 1013.0 0.0
06/08:00am 12.6 7.6 4.8 59 3.6 ESE 20 26 11 14 1013.2 1012.9 0.0
06/07:30am 11.1 6.8 5.2 67 2.7 SE 17 20 9 11 1013.6 1013.3 0.0
06/07:00am 8.9 4.6 5.1 77 1.7 SSE 17 20 9 11 1013.2 1012.9 0.0
06/06:30am 7.5 3.9 4.8 83 1.2 SSE 13 17 7 9 1013.2 1012.9 0.0
06/06:00am 6.4 2.3 4.2 86 0.9 SSE 15 19 8 10 1012.7 1012.4 0.0
06/05:30am 6.5 2.4 4.2 85 1.0 SSE 15 19 8 10 1012.9 1012.6 0.0
06/05:00am 6.5 2.4 4.2 85 1.0 SSE 15 17 8 9 1012.7 1012.4 0.0
06/04:30am 6.5 2.4 4.2 85 1.0 SSE 15 17 8 9 1012.8 1012.5 0.0
06/04:00am 7.2 4.2 4.3 82 1.3 SSE 9 11 5 6 1013.2 1012.9 0.0
06/03:30am 7.2 4.2 4.2 81 1.3 SSE 9 9 5 5 1013.6 1013.3 0.0
06/03:00am 8.0 4.7 4.6 79 1.5 SSE 11 13 6 7 1013.8 1013.4 0.0
06/02:30am 8.9 5.7 4.9 76 1.8 SE 11 13 6 7 1013.8 1013.4 0.0
06/02:00am 9.7 5.8 5.3 74 2.0 SE 15 19 8 10 1014.2 1013.8 0.0
06/01:30am 10.1 6.7 5.7 74 2.0 SE 13 17 7 9 1014.3 1013.9 0.0
06/01:00am 11.0 6.2 5.5 69 2.5 SE 20 24 11 13 1014.2 1013.8 0.0
06/12:30am 11.4 7.2 5.7 68 2.7 SSE 17 22 9 12 1014.5 1014.1 0.0
06/12:00am 12.2 7.0 5.6 64 3.1 SSE 22 28 12 15 1014.4 1014.0 0.0
 
Date/Time
CDT
Temp
°C
App
Temp
°C
Dew
Point
°C
Rel
Hum
%
Delta-T
°C
Wind Press
QNH
hPa
Press
MSL
hPa
Rain since
9am
mm
Dir  Spd
km/h
Gust
km/h
Spd
kts
Gust
kts
05/11:30pm 13.1 7.9 5.5 60 3.6 SSE 22 26 12 14 1014.6 1014.2 0.0
05/11:00pm 13.9 9.1 5.5 57 4.0 SSE 20 28 11 15 1015.0 1014.6 0.0
05/10:30pm 14.3 9.7 5.4 55 4.2 SSE 19 26 10 14 1015.0 1014.6 0.0
05/10:00pm 15.3 10.0 5.2 51 4.8 SSE 22 32 12 17 1014.8 1014.4 0.0
05/09:30pm 15.9 11.1 4.6 47 5.3 S 19 26 10 14 1014.6 1014.2 0.0
05/09:00pm 16.6 11.6 3.7 42 6.0 S 19 24 10 13 1014.2 1013.8 0.0
05/08:30pm 17.8 12.8 3.7 39 6.6 S 19 26 10 14 1013.8 1013.4 0.0
05/08:00pm 19.0 13.5 2.0 32 7.8 S 20 28 11 15 1014.0 1013.6 0.0
05/07:30pm 20.5 14.3 2.3 30 8.5 S 24 33 13 18 1013.5 1013.2 0.0
05/07:00pm 21.7 15.0 3.4 30 8.8 SSE 28 37 15 20 1013.1 1012.8 0.0
05/06:30pm 22.7 16.2 2.8 27 9.5 SSE 26 35 14 19 1013.0 1012.7 0.0
05/06:00pm 22.9 16.4 2.4 26 9.8 S 26 35 14 19 1012.9 1012.6 0.0
05/05:30pm 23.4 16.7 3.4 27 9.7 S 28 39 15 21 1012.9 1012.6 0.0
05/05:00pm 23.2 16.5 3.7 28 9.5 S 28 43 15 23 1012.9 1012.6 0.0
05/04:30pm 24.1 17.8 4.0 27 9.9 SSW 26 37 14 20 1013.1 1012.8 0.0
05/04:00pm 24.4 18.0 3.1 25 10.4 S 26 37 14 20 1013.2 1012.9 0.0
05/03:30pm 23.7 17.1 4.1 28 9.7 S 28 39 15 21 1013.2 1012.9 0.0
05/03:00pm 24.5 18.2 5.8 30 9.6 S 28 39 15 21 1013.3 1013.0 0.0
05/02:30pm 24.1 18.5 5.5 30 9.5 S 24 37 13 20 1013.4 1013.1 0.0
05/02:00pm 23.1 16.9 6.0 33 8.7 S 28 43 15 23 1013.6 1013.3 0.0
05/01:30pm 22.6 16.3 7.2 37 8.0 S 30 41 16 22 1013.9 1013.5 0.0
05/01:26pm 22.4 16.4 7.0 37 8.0 S 28 46 15 25 1013.9 1013.5 0.0
05/01:00pm 21.8 15.7 6.5 37 7.8 S 28 43 15 23 1014.3 1013.9 0.0
05/12:30pm 22.2 16.3 7.6 39 7.6 S 28 39 15 21 1014.7 1014.3 0.0
05/12:00pm 21.0 15.1 7.3 41 7.1 S 28 39 15 21 1014.7 1014.3 0.0
05/11:49am 19.9 13.3 7.9 46 6.2 S 32 50 17 27 1014.7 1014.3 0.0
05/11:30am 20.1 13.8 7.5 44 6.5 S 30 43 16 23 1014.6 1014.2 0.0
05/11:00am 19.8 14.5 8.5 48 5.9 SSE 26 41 14 22 1014.5 1014.1 0.0
05/10:30am 19.6 13.2 8.6 49 5.8 S 32 43 17 23 1014.4 1014.0 0.0
05/10:00am 19.3 13.1 8.0 48 5.8 S 30 43 16 23 1014.1 1013.7 0.0
05/09:30am 18.1 11.8 7.2 49 5.5 S 30 41 16 22 1014.1 1013.7 0.0
05/09:00am 18.0 10.8 7.7 51 5.3 SSE 35 46 19 25 1014.0 1013.6 0.0
05/08:30am 16.9 11.6 8.6 58 4.3 S 26 33 14 18 1014.3 1013.9 0.0
05/08:00am 15.8 10.1 8.5 62 3.7 S 28 39 15 21 1014.0 1013.6 0.0
05/07:30am 15.0 10.3 9.4 69 2.9 S 24 32 13 17 1014.0 1013.6 0.0
05/07:00am 14.8 9.7 9.2 69 2.9 S 26 32 14 17 1013.9 1013.5 0.0
05/06:30am 14.7 10.0 9.1 69 2.9 SSW 24 37 13 20 1013.4 1013.1 0.0
05/06:00am 14.6 9.2 9.6 72 2.6 S 28 39 15 21 1012.5 1012.2 0.0
05/05:30am 14.7 11.1 10.5 76 2.2 SSW 20 28 11 15 1012.3 1012.0 0.0
05/05:00am 14.7 10.4 10.7 77 2.1 SSW 24 39 13 21 1012.0 1011.7 0.0
05/04:30am 14.9 9.8 10.7 76 2.2 SSW 28 37 15 20 1011.5 1011.2 0.0
05/04:00am 15.0 10.7 10.8 76 2.2 SSW 24 35 13 19 1011.3 1011.0 0.0
05/03:33am 14.7 9.4 11.1 79 1.9 SSW 30 50 16 27 1011.1 1010.8 0.0
05/03:30am 14.6 9.7 11.4 81 1.7 SSW 28 46 15 25 1011.1 1010.8 0.0
05/03:00am 14.7 9.5 11.7 82 1.6 SSW 30 39 16 21 1011.0 1010.6 0.0
05/02:30am 15.3 9.1 11.3 77 2.2 SSW 35 50 19 27 1010.1 1009.7 0.0
05/02:00am 15.6 9.1 11.6 77 2.2 SSW 37 50 20 27 1010.8 1010.4 0.0
05/01:30am 15.9 11.1 11.5 75 2.4 SW 28 43 15 23 1012.4 1012.1 0.0
05/01:00am 16.0 11.0 12.2 78 2.1 SW 30 39 16 21 1011.8 1011.5 0.0
05/12:30am 16.0 9.6 12.0 77 2.2 SW 37 50 20 27 1011.7 1011.4 0.0
05/12:22am 16.0 10.5 12.0 77 2.2 SW 32 50 17 27 1011.8 1011.5 0.0
05/12:00am 16.1 11.6 12.5 79 2.0 SW 28 39 15 21 1011.5 1011.2 0.0
 
Date/Time
CDT
Temp
°C
App
Temp
°C
Dew
Point
°C
Rel
Hum
%
Delta-T
°C
Wind Press
QNH
hPa
Press
MSL
hPa
Rain since
9am
mm
Dir  Spd
km/h
Gust
km/h
Spd
kts
Gust
kts
04/11:30pm 15.9 10.5 12.3 79 2.0 SW 32 43 17 23 1011.9 1011.6 0.0
04/11:00pm 16.0 11.9 12.6 80 1.9 SW 26 37 14 20 1011.9 1011.6 0.0
04/10:30pm 16.4 10.6 12.8 79 2.0 SW 35 54 19 29 1012.2 1011.9 0.0
04/10:22pm 16.4 10.6 12.8 79 2.0 SW 35 54 19 29 1012.0 1011.7 0.0
04/10:00pm 16.4 12.1 13.1 81 1.8 SW 28 39 15 21 1011.3 1011.0 0.0
04/09:30pm 16.4 10.3 13.1 81 1.9 SW 37 48 20 26 1010.9 1010.5 0.0
04/09:00pm 17.1 12.7 13.0 77 2.3 SW 28 39 15 21 1010.5 1010.1 0.0
04/08:30pm 19.0 13.5 13.6 71 3.1 SW 35 46 19 25 1009.8 1009.4 0.0
04/08:00pm 22.0 17.4 13.4 58 5.0 SW 30 41 16 22 1008.7 1008.3 0.0
04/07:30pm 25.8 20.0 7.9 32 9.6 SW 28 37 15 20 1008.5 1008.1 0.0
04/07:00pm 27.3 22.2 7.7 29 10.6 SW 24 32 13 17 1008.1 1007.7 0.0
04/06:30pm 29.5 23.7 8.0 26 11.8 SW 28 41 15 22 1007.8 1007.4 0.0
04/06:00pm 31.5 24.7 5.1 19 14.0 WSW 30 41 16 22 1007.5 1007.1 0.0
04/05:30pm 33.4 25.7 3.3 15 15.6 SW 33 44 18 24 1007.6 1007.2 0.0
04/05:00pm 35.1 26.9 2.6 13 16.8 SW 35 48 19 26 1007.6 1007.2 0.0
04/04:30pm 35.7 27.6 3.0 13 17.1 WSW 35 48 19 26 1007.4 1007.0 0.0
04/04:00pm 36.9 28.9 1.6 11 18.2 W 33 48 18 26 1007.3 1006.9 0.0
04/03:39pm 38.0 30.9 1.1 10 19.0 W 28 46 15 25 1007.2 1006.8 0.0
04/03:30pm 38.6 30.8 1.6 10 19.3 W 32 46 17 25 1007.2 1006.8 0.0
04/03:24pm 38.0 30.9 1.1 10 19.0 W 28 46 15 25 1007.2 1006.8 0.0
04/03:00pm 38.2 32.2 1.3 10 19.1 WSW 22 35 12 19 1007.4 1007.0 0.0
04/02:30pm 37.2 32.1 3.1 12 18.0 WNW 19 39 10 21 1008.1 1007.7 0.0
04/02:00pm 36.9 31.4 1.6 11 18.2 WNW 20 33 11 18 1008.7 1008.3 0.0
04/01:30pm 36.7 31.1 1.5 11 18.1 WNW 20 39 11 21 1009.1 1008.7 0.0
04/01:00pm 36.5 30.0 2.5 12 17.7 WNW 26 43 14 23 1009.5 1009.1 0.0
04/12:30pm 35.1 29.2 1.5 12 17.1 WNW 22 33 12 18 1010.0 1009.6 0.0
04/12:00pm 35.3 28.8 2.7 13 16.9 NNW 26 39 14 21 1010.3 1009.9 0.0
04/11:30am 36.0 29.6 3.3 13 17.2 NW 26 43 14 23 1010.6 1010.2 0.0
04/11:00am 33.9 28.5 6.3 18 15.1 NNW 24 35 13 19 1010.9 1010.5 0.0
04/10:30am 32.9 28.0 7.0 20 14.2 NNW 22 35 12 19 1011.1 1010.8 0.0
04/10:00am 31.7 26.9 7.4 22 13.3 NNW 22 32 12 17 1011.3 1011.0 0.0
04/09:30am 30.6 25.9 7.7 24 12.6 NNW 22 30 12 16 1011.4 1011.1 0.0
04/09:00am 29.3 24.5 7.2 25 11.9 NNW 22 28 12 15 1011.5 1011.2 0.0
04/08:30am 27.6 22.8 7.5 28 10.8 N 22 30 12 16 1011.7 1011.4 0.0
04/08:00am 26.1 21.8 7.7 31 9.9 N 20 28 11 15 1011.7 1011.4 0.0
04/07:30am 22.9 19.9 7.8 38 8.0 N 13 22 7 12 1011.5 1011.2 0.0
04/07:00am 18.9 16.7 9.4 54 5.0 NE 11 13 6 7 1011.3 1011.0 0.0
04/06:30am 15.7 13.0 9.1 65 3.4 NE 13 15 7 8 1011.2 1010.9 0.0
04/06:00am 13.7 11.2 8.3 70 2.7 NE 11 13 6 7 1011.0 1010.6 0.0
04/05:30am 12.8 10.2 7.9 72 2.4 NE 11 13 6 7 1010.7 1010.3 0.0
04/05:00am 13.2 10.9 7.6 69 2.8 ENE 9 11 5 6 1010.6 1010.2 0.0
04/04:30am 14.1 11.6 8.1 67 3.0 ENE 11 13 6 7 1010.5 1010.1 0.0
04/04:00am 14.0 10.6 7.8 66 3.1 ENE 15 15 8 8 1010.7 1010.3 0.0
04/03:30am 14.1 10.7 7.6 65 3.2 ENE 15 17 8 9 1010.8 1010.4 0.0
04/03:00am 14.4 11.2 6.7 60 3.8 E 13 15 7 8 1010.9 1010.5 0.0
04/02:30am 15.8 13.1 7.3 57 4.2 ESE 11 11 6 6 1011.0 1010.6 0.0
04/02:00am 15.4 13.0 6.9 57 4.2 ESE 9 11 5 6 1011.4 1011.1 0.0
04/01:30am 15.9 12.7 6.9 55 4.5 SSE 13 15 7 8 1011.7 1011.4 0.0
04/01:00am 15.9 13.9 7.1 56 4.4 S 7 11 4 6 1012.2 1011.9 0.0
04/12:30am 15.9 13.1 6.9 55 4.5 SW 11 13 6 7 1012.4 1012.1 0.0
04/12:00am 16.7 14.6 6.5 51 5.0 SSW 7 9 4 5 1012.8 1012.5 0.0
 
Date/Time
CDT
Temp
°C
App
Temp
°C
Dew
Point
°C
Rel
Hum
%
Delta-T
°C
Wind Press
QNH
hPa
Press
MSL
hPa
Rain since
9am
mm
Dir  Spd
km/h
Gust
km/h
Spd
kts
Gust
kts
03/11:30pm 17.2 15.6 6.4 49 5.3 S 4 6 2 3 1012.8 1012.5 0.0
03/11:00pm 17.2 14.3 6.4 49 5.3 SSW 11 15 6 8 1012.8 1012.5 0.0
03/10:30pm 18.1 14.8 6.3 46 5.9 SSW 13 15 7 8 1012.7 1012.4 0.0
03/10:00pm 19.7 15.9 5.7 40 6.9 S 15 15 8 8 1012.6 1012.3 0.0
03/09:30pm 22.3 17.9 4.8 32 8.7 S 17 19 9 10 1012.2 1011.9 0.0
03/09:00pm 23.2 18.8 4.7 30 9.2 S 17 19 9 10 1011.9 1011.6 0.0
03/08:30pm 25.8 20.8 3.7 24 11.0 S 19 24 10 13 1011.7 1011.4 0.0
03/08:00pm 27.8 22.2 3.5 21 12.2 SSW 22 33 12 18 1011.5 1011.2 0.0
03/07:30pm 31.5 28.2 -0.2 13 15.3 WNW 7 9 4 5 1011.0 1010.6 0.0
03/07:00pm 33.2 30.5 0.0 12 16.3 NW 4 11 2 6 1010.8 1010.4 0.0
03/06:30pm 33.0 29.7 -0.2 12 16.2 NNE 7 17 4 9 1010.6 1010.2 0.0
03/06:00pm 34.4 31.6 -0.3 11 17.1 SSW 4 7 2 4 1010.6 1010.2 0.0
03/05:30pm 33.4 30.1 -1.0 11 16.6 N 6 11 3 6 1010.6 1010.2 0.0
03/05:00pm 33.5 29.3 -1.0 11 16.7 NW 11 20 6 11 1010.8 1010.4 0.0
03/04:30pm 34.1 30.0 -0.5 11 16.9 W 11 20 6 11 1010.9 1010.5 0.0
03/04:00pm 33.5 30.0 -1.0 11 16.7 N 7 19 4 10 1011.2 1010.9 0.0
03/03:30pm 33.7 29.1 -0.8 11 16.8 WNW 13 20 7 11 1011.4 1011.1 0.0
03/03:00pm 33.5 27.8 -1.0 11 16.7 NNW 19 32 10 17 1011.7 1011.4 0.0
03/02:30pm 32.9 29.6 -0.2 12 16.2 E 7 13 4 7 1012.1 1011.8 0.0
03/02:00pm 32.8 27.8 -1.5 11 16.4 WNW 15 26 8 14 1012.5 1012.2 0.0
03/01:30pm 32.8 28.5 0.8 13 15.9 NW 13 28 7 15 1012.9 1012.6 0.0
03/01:00pm 32.5 28.5 0.6 13 15.7 NW 11 24 6 13 1013.2 1012.9 0.0
03/12:30pm 31.4 26.7 0.7 14 15.0 NW 15 28 8 15 1013.5 1013.2 0.0
03/12:00pm 31.9 26.3 1.1 14 15.2 NW 20 28 11 15 1014.0 1013.6 0.0
03/11:30am 31.8 26.4 -1.1 12 15.7 NNW 17 30 9 16 1014.1 1013.7 0.0
03/11:00am 31.2 25.8 2.4 16 14.5 NW 20 32 11 17 1014.2 1013.8 0.0
03/10:30am 30.3 26.4 3.4 18 13.7 NNW 13 26 7 14 1014.3 1013.9 0.0
03/10:00am 29.6 26.8 6.9 24 12.2 N 11 20 6 11 1014.4 1014.0 0.0
03/09:30am 27.7 24.8 6.5 26 11.2 NNE 11 19 6 10 1014.4 1014.0 0.0
03/09:00am 26.7 24.2 6.7 28 10.6 NNE 9 17 5 9 1014.7 1014.3 0.0

Other formats

Comma delimited format used in spreadsheet applications
http://www.bom.gov.au/fwo/IDS60801/IDS60801.94690.axf

JavaScript Object Notation format (JSON) in row-major order
http://www.bom.gov.au/fwo/IDS60801/IDS60801.94690.json

Data quality

Most of these data are generated automatically and are frequently updated. Quality checks on data are not normally performed. It is possible for incorrect values to appear. Refer to information at About Latest Weather Observations and please check the disclaimer before using these data.